Time;durP1;ratioP1;P1;durP2;ratioP2;P2;SDS_P1;SDS_P2;PMS_P1;PMS_P2;Temp;Humidity;BMP_temperature;BMP_pressure;BME280_temperature;BME280_humidity;BME280_pressure;Samples;Min_cycle;Max_cycle;Signal;HPM_P1;HPM_P2
2022/04/23 00:02:11;;;;;;;6.15;4.90;;;;;;;;;;5090520;28;20048;-67
2022/04/23 00:04:38;;;;;;;7.45;5.32;;;;;;;;;;5091077;28;20187;-69
2022/04/23 00:07:05;;;;;;;10.13;5.05;;;;;;;;;;5091363;28;20048;-68
2022/04/23 00:09:32;;;;;;;7.45;5.28;;;;;;;;;;5092409;28;20048;-68
2022/04/23 00:11:58;;;;;;;9.00;5.70;;;;;;;;;;5091050;28;20052;-68
2022/04/23 00:14:25;;;;;;;7.22;5.47;;;;;;;;;;5092000;28;20049;-67
2022/04/23 00:16:51;;;;;;;9.15;5.40;;;;;;;;;;5091629;28;20461;-67
2022/04/23 00:19:18;;;;;;;9.45;5.60;;;;;;;;;;5093686;28;20073;-68
2022/04/23 00:21:44;;;;;;;10.88;5.38;;;;;;;;;;5089957;28;20053;-68
2022/04/23 00:24:11;;;;;;;8.50;5.93;;;;;;;;;;5090667;28;20162;-68
2022/04/23 00:26:37;;;;;;;6.85;6.00;;;;;;;;;;5091478;28;20508;-68
2022/04/23 00:29:03;;;;;;;6.68;5.53;;;;;;;;;;5090908;28;20059;-67
2022/04/23 00:31:30;;;;;;;5.85;4.82;;;;;;;;;;5090568;28;20069;-68
2022/04/23 00:33:56;;;;;;;9.15;6.20;;;;;;;;;;5090735;28;20053;-67
2022/04/23 00:36:23;;;;;;;7.78;6.25;;;;;;;;;;5074419;28;20057;-68
2022/04/23 00:38:52;;;;;;;10.48;6.45;;;;;;;;;;5078759;28;20061;-67
2022/04/23 00:44:04;;;;;;;11.10;6.15;;;;;;;;;;5094245;28;20053;-67
2022/04/23 00:46:31;;;;;;;6.85;5.80;;;;;;;;;;5094391;28;20143;-67
2022/04/23 00:48:59;;;;;;;7.32;6.03;;;;;;;;;;5093674;28;20074;-68
2022/04/23 00:51:29;;;;;;;7.22;6.00;;;;;;;;;;5093486;28;20057;-68
2022/04/23 00:53:56;;;;;;;11.82;6.95;;;;;;;;;;5094228;28;20055;-68
2022/04/23 00:56:23;;;;;;;9.48;7.00;;;;;;;;;;5094346;28;20056;-68
2022/04/23 00:58:50;;;;;;;10.48;7.28;;;;;;;;;;5094834;28;20499;-68
2022/04/23 01:01:16;;;;;;;9.57;6.88;;;;;;;;;;5079025;28;20045;-67
2022/04/23 01:03:42;;;;;;;7.75;6.68;;;;;;;;;;5089741;28;20151;-67
2022/04/23 01:06:12;;;;;;;8.38;7.00;;;;;;;;;;5093658;28;20578;-68
2022/04/23 01:08:39;;;;;;;10.65;7.28;;;;;;;;;;5094417;28;20107;-68
2022/04/23 01:11:05;;;;;;;10.75;7.05;;;;;;;;;;5093969;28;20052;-68
2022/04/23 01:13:32;;;;;;;8.75;7.50;;;;;;;;;;5093788;28;20056;-69
2022/04/23 01:15:58;;;;;;;8.85;7.90;;;;;;;;;;5092567;28;20052;-68
2022/04/23 01:18:24;;;;;;;10.02;7.30;;;;;;;;;;5097142;28;20056;-68
2022/04/23 01:20:51;;;;;;;10.10;7.97;;;;;;;;;;5093584;28;20115;-68
2022/04/23 01:23:17;;;;;;;11.40;8.27;;;;;;;;;;5090754;28;20097;-68
2022/04/23 01:25:44;;;;;;;11.10;8.35;;;;;;;;;;5091532;28;20053;-68
2022/04/23 01:28:10;;;;;;;9.60;7.93;;;;;;;;;;5093652;28;20063;-68
2022/04/23 01:30:36;;;;;;;12.20;8.35;;;;;;;;;;5094566;28;20062;-68
2022/04/23 01:33:03;;;;;;;11.00;7.97;;;;;;;;;;5094385;28;20059;-69
2022/04/23 01:35:31;;;;;;;11.20;9.02;;;;;;;;;;5093227;28;20052;-69
2022/04/23 01:37:57;;;;;;;13.80;9.00;;;;;;;;;;5093953;28;20059;-68
2022/04/23 01:40:23;;;;;;;13.85;9.02;;;;;;;;;;5094419;28;20514;-68
2022/04/23 01:42:50;;;;;;;10.95;9.15;;;;;;;;;;5093181;28;20507;-68
2022/04/23 01:45:16;;;;;;;12.55;9.30;;;;;;;;;;5092931;28;20056;-69
2022/04/23 01:47:42;;;;;;;15.43;10.07;;;;;;;;;;5094053;28;20055;-68
2022/04/23 01:50:09;;;;;;;12.52;9.88;;;;;;;;;;5092069;28;20500;-70
2022/04/23 01:52:35;;;;;;;14.68;9.75;;;;;;;;;;5092312;28;20044;-68
2022/04/23 01:55:01;;;;;;;12.20;9.90;;;;;;;;;;5093035;28;20059;-68
2022/04/23 01:57:27;;;;;;;13.10;10.30;;;;;;;;;;5101089;28;20148;-69
2022/04/23 01:59:54;;;;;;;11.02;9.65;;;;;;;;;;5113772;28;20071;-68
2022/04/23 02:02:22;;;;;;;12.90;10.45;;;;;;;;;;5100475;27;20106;-69
2022/04/23 02:04:48;;;;;;;11.20;10.05;;;;;;;;;;5091574;28;20062;-69
2022/04/23 02:07:15;;;;;;;11.82;10.60;;;;;;;;;;5092519;28;20044;-69
2022/04/23 02:09:41;;;;;;;13.15;11.10;;;;;;;;;;5092739;28;20101;-68
2022/04/23 02:12:07;;;;;;;13.82;11.20;;;;;;;;;;5092668;28;20071;-67
2022/04/23 02:14:35;;;;;;;13.25;11.35;;;;;;;;;;5092182;28;20059;-68
2022/04/23 02:17:03;;;;;;;15.05;11.60;;;;;;;;;;5092920;28;20048;-68
2022/04/23 02:19:29;;;;;;;13.40;11.32;;;;;;;;;;5093393;28;20048;-68
2022/04/23 02:21:55;;;;;;;16.67;12.02;;;;;;;;;;5091994;28;20052;-68
2022/04/23 02:24:22;;;;;;;15.40;12.07;;;;;;;;;;5099152;28;20059;-69
2022/04/23 02:26:48;;;;;;;13.93;11.63;;;;;;;;;;5093896;28;20132;-68
2022/04/23 02:29:14;;;;;;;15.95;11.95;;;;;;;;;;5092638;28;20488;-69
2022/04/23 02:31:40;;;;;;;16.92;12.30;;;;;;;;;;5095750;28;20522;-68
2022/04/23 02:34:07;;;;;;;16.38;12.88;;;;;;;;;;5088109;28;20072;-69
2022/04/23 02:36:36;;;;;;;14.80;13.20;;;;;;;;;;5092750;28;20056;-68
2022/04/23 02:39:02;;;;;;;18.20;13.27;;;;;;;;;;5092372;28;20130;-68
2022/04/23 02:41:29;;;;;;;14.43;12.68;;;;;;;;;;5093289;28;20067;-68
2022/04/23 02:43:57;;;;;;;17.83;13.13;;;;;;;;;;5093215;28;20059;-68
2022/04/23 02:46:24;;;;;;;14.13;12.63;;;;;;;;;;5092441;28;20051;-68
2022/04/23 02:48:50;;;;;;;15.25;13.43;;;;;;;;;;5091332;28;20053;-68
2022/04/23 02:51:16;;;;;;;15.10;13.50;;;;;;;;;;5092620;28;20055;-68
2022/04/23 02:53:43;;;;;;;19.95;14.27;;;;;;;;;;5089913;28;20052;-68
2022/04/23 02:56:16;;;;;;;18.27;13.65;;;;;;;;;;5091467;28;20467;-68
2022/04/23 02:58:43;;;;;;;16.88;14.23;;;;;;;;;;5092567;28;20052;-68
2022/04/23 03:01:10;;;;;;;17.80;14.93;;;;;;;;;;5087711;28;20459;-68
2022/04/23 03:03:38;;;;;;;18.55;14.80;;;;;;;;;;5088353;28;20224;-69
2022/04/23 03:06:07;;;;;;;22.80;15.25;;;;;;;;;;5091059;28;20053;-68
2022/04/23 03:08:37;;;;;;;15.57;13.95;;;;;;;;;;5092532;28;20131;-68
2022/04/23 03:11:05;;;;;;;20.02;16.05;;;;;;;;;;5092149;28;20164;-68
2022/04/23 03:13:34;;;;;;;19.85;15.88;;;;;;;;;;5089787;28;20052;-68
2022/04/23 03:16:01;;;;;;;18.83;15.68;;;;;;;;;;5091453;28;20056;-68
2022/04/23 03:18:28;;;;;;;17.08;15.27;;;;;;;;;;5091277;28;20500;-68
2022/04/23 03:20:55;;;;;;;18.40;16.17;;;;;;;;;;5092405;28;20052;-68
2022/04/23 03:23:28;;;;;;;22.40;17.05;;;;;;;;;;5092395;28;20055;-67
2022/04/23 03:25:54;;;;;;;21.75;16.27;;;;;;;;;;5091602;28;20519;-68
2022/04/23 03:28:20;;;;;;;19.42;15.98;;;;;;;;;;5091583;28;20048;-68
2022/04/23 03:30:47;;;;;;;19.63;14.95;;;;;;;;;;5091929;28;20056;-68
2022/04/23 03:33:13;;;;;;;17.08;15.15;;;;;;;;;;5091094;28;20060;-68
2022/04/23 03:35:40;;;;;;;26.75;16.95;;;;;;;;;;5086407;28;20480;-68
2022/04/23 03:38:06;;;;;;;20.92;15.60;;;;;;;;;;5072505;28;20053;-68
2022/04/23 03:40:32;;;;;;;18.88;15.07;;;;;;;;;;5092277;28;20182;-68
2022/04/23 03:42:59;;;;;;;22.85;16.25;;;;;;;;;;5091239;28;20060;-68
2022/04/23 03:45:25;;;;;;;21.60;16.05;;;;;;;;;;5085728;28;20508;-68
2022/04/23 03:47:51;;;;;;;20.33;16.08;;;;;;;;;;5091861;28;20057;-68
2022/04/23 03:50:18;;;;;;;20.80;15.73;;;;;;;;;;5091439;28;20059;-68
2022/04/23 03:52:44;;;;;;;18.67;16.20;;;;;;;;;;5092440;28;20051;-69
2022/04/23 03:55:11;;;;;;;23.13;16.95;;;;;;;;;;5089473;28;20055;-69
2022/04/23 03:57:48;;;;;;;20.38;16.33;;;;;;;;;;5088510;28;20388;-69
2022/04/23 04:00:15;;;;;;;19.60;16.48;;;;;;;;;;5087186;28;20116;-68
2022/04/23 04:02:42;;;;;;;22.65;16.67;;;;;;;;;;5082735;28;20626;-68
2022/04/23 04:05:10;;;;;;;19.85;16.70;;;;;;;;;;5090461;28;20055;-69
2022/04/23 04:07:40;;;;;;;22.80;17.00;;;;;;;;;;5090405;28;20058;-69
2022/04/23 04:10:06;;;;;;;20.38;16.15;;;;;;;;;;5093699;28;20511;-69
2022/04/23 04:12:32;;;;;;;26.10;17.77;;;;;;;;;;5097984;28;20064;-68
2022/04/23 04:15:00;;;;;;;26.50;17.33;;;;;;;;;;5095812;28;20058;-69
2022/04/23 04:17:26;;;;;;;20.75;16.45;;;;;;;;;;5095091;28;20507;-68
2022/04/23 04:19:53;;;;;;;21.58;17.42;;;;;;;;;;5091706;28;20538;-69
2022/04/23 04:22:21;;;;;;;20.42;17.80;;;;;;;;;;5093429;28;20075;-68
2022/04/23 04:24:48;;;;;;;21.65;18.25;;;;;;;;;;5093463;28;20175;-69
2022/04/23 04:27:15;;;;;;;19.15;17.05;;;;;;;;;;5087923;28;20103;-69
2022/04/23 04:29:41;;;;;;;21.83;17.88;;;;;;;;;;5093252;28;20063;-68
2022/04/23 04:32:07;;;;;;;21.20;17.77;;;;;;;;;;5094352;28;20060;-69
2022/04/23 04:34:33;;;;;;;23.00;17.80;;;;;;;;;;5093544;28;20709;-69
2022/04/23 04:37:02;;;;;;;21.02;17.38;;;;;;;;;;5093932;28;20053;-68
2022/04/23 04:39:28;;;;;;;26.85;19.05;;;;;;;;;;5095249;28;20056;-69
2022/04/23 04:41:55;;;;;;;19.75;17.00;;;;;;;;;;5095057;28;20048;-68
2022/04/23 04:44:21;;;;;;;23.33;19.60;;;;;;;;;;5091047;28;20090;-69
2022/04/23 04:46:47;;;;;;;22.55;18.33;;;;;;;;;;5094120;28;20057;-69
2022/04/23 04:49:13;;;;;;;20.42;17.65;;;;;;;;;;5096157;28;20514;-69
2022/04/23 04:51:40;;;;;;;20.65;17.92;;;;;;;;;;5090954;28;20108;-69
2022/04/23 04:54:06;;;;;;;20.23;17.95;;;;;;;;;;5091144;28;20053;-68
2022/04/23 04:56:33;;;;;;;20.70;17.52;;;;;;;;;;5090951;28;20056;-70
2022/04/23 04:59:00;;;;;;;22.67;17.65;;;;;;;;;;5094256;28;20478;-69
2022/04/23 05:01:28;;;;;;;21.90;18.55;;;;;;;;;;5093243;28;20052;-69
2022/04/23 05:03:55;;;;;;;20.92;17.77;;;;;;;;;;5093471;28;20691;-68
2022/04/23 05:06:21;;;;;;;21.55;17.73;;;;;;;;;;5093898;28;20143;-68
2022/04/23 05:08:48;;;;;;;19.67;17.30;;;;;;;;;;5094422;28;20468;-69
2022/04/23 05:11:14;;;;;;;32.47;18.33;;;;;;;;;;5089558;28;20048;-69
2022/04/23 05:13:40;;;;;;;22.55;17.33;;;;;;;;;;5094067;28;20052;-68
2022/04/23 05:16:09;;;;;;;21.63;18.35;;;;;;;;;;5093869;28;20052;-68
2022/04/23 05:18:36;;;;;;;19.45;16.58;;;;;;;;;;5097477;28;20124;-68
2022/04/23 05:21:02;;;;;;;20.58;16.55;;;;;;;;;;5092420;28;20053;-68
2022/04/23 05:23:29;;;;;;;16.85;14.82;;;;;;;;;;5080992;28;20050;-69
2022/04/23 05:25:55;;;;;;;19.77;17.08;;;;;;;;;;5092630;28;20049;-68
2022/04/23 05:28:22;;;;;;;22.20;16.95;;;;;;;;;;5091742;28;20083;-68
2022/04/23 05:30:48;;;;;;;20.15;16.10;;;;;;;;;;5091878;28;20093;-68
2022/04/23 05:33:15;;;;;;;17.33;15.13;;;;;;;;;;5091572;28;20060;-69
2022/04/23 05:35:41;;;;;;;18.27;16.35;;;;;;;;;;5091398;28;20052;-68
2022/04/23 05:38:07;;;;;;;19.35;15.90;;;;;;;;;;5093351;28;20052;-68
2022/04/23 05:40:34;;;;;;;16.13;14.43;;;;;;;;;;5090283;28;20057;-69
2022/04/23 05:43:00;;;;;;;21.25;15.90;;;;;;;;;;5092726;28;20056;-68
2022/04/23 05:45:27;;;;;;;16.85;13.75;;;;;;;;;;5086688;28;20049;-68
2022/04/23 05:47:53;;;;;;;16.65;14.60;;;;;;;;;;5091875;28;20056;-68
2022/04/23 05:50:21;;;;;;;16.73;14.68;;;;;;;;;;5090522;28;20049;-68
2022/04/23 05:52:47;;;;;;;16.00;13.70;;;;;;;;;;5073721;28;20052;-68
2022/04/23 05:55:13;;;;;;;16.17;14.48;;;;;;;;;;5095302;28;20048;-69
2022/04/23 05:57:40;;;;;;;19.00;14.88;;;;;;;;;;5091049;28;20115;-68
2022/04/23 06:00:07;;;;;;;16.17;13.98;;;;;;;;;;5093597;28;20064;-68
2022/04/23 06:02:34;;;;;;;15.45;13.43;;;;;;;;;;5091897;28;20059;-68
2022/04/23 06:05:00;;;;;;;16.45;13.68;;;;;;;;;;5091401;28;20499;-68
2022/04/23 06:07:26;;;;;;;15.10;13.48;;;;;;;;;;5092863;28;20090;-69
2022/04/23 06:09:53;;;;;;;16.77;14.63;;;;;;;;;;5093233;28;20052;-68
2022/04/23 06:12:19;;;;;;;16.35;13.85;;;;;;;;;;5092639;28;20135;-69
2022/04/23 06:14:45;;;;;;;17.85;14.05;;;;;;;;;;5092184;28;20047;-68
2022/04/23 06:17:13;;;;;;;14.98;13.38;;;;;;;;;;5091547;28;20045;-68
2022/04/23 06:19:39;;;;;;;14.63;12.93;;;;;;;;;;5090947;28;20131;-68
2022/04/23 06:22:06;;;;;;;17.63;13.82;;;;;;;;;;5093236;28;20058;-68
2022/04/23 06:24:32;;;;;;;13.98;12.50;;;;;;;;;;5092745;28;20047;-67
2022/04/23 06:27:00;;;;;;;15.50;13.75;;;;;;;;;;5092376;28;20048;-68
2022/04/23 06:29:26;;;;;;;18.67;13.57;;;;;;;;;;5090913;28;20484;-67
2022/04/23 06:31:52;;;;;;;16.25;13.50;;;;;;;;;;5090855;28;20526;-68
2022/04/23 06:34:20;;;;;;;14.65;13.13;;;;;;;;;;5092402;28;20484;-67
2022/04/23 06:36:46;;;;;;;18.23;14.07;;;;;;;;;;5091126;28;20053;-68
2022/04/23 06:39:12;;;;;;;17.48;14.05;;;;;;;;;;5092447;28;20063;-68
2022/04/23 06:41:38;;;;;;;16.33;13.63;;;;;;;;;;5093334;28;20059;-68
2022/04/23 06:44:05;;;;;;;16.00;13.80;;;;;;;;;;5089274;28;20518;-68
2022/04/23 06:46:31;;;;;;;15.63;13.93;;;;;;;;;;5093482;28;20052;-68
2022/04/23 06:49:00;;;;;;;16.02;13.65;;;;;;;;;;5090975;28;20053;-69
2022/04/23 06:51:26;;;;;;;17.60;14.02;;;;;;;;;;5088000;28;20143;-68
2022/04/23 06:53:56;;;;;;;14.55;12.65;;;;;;;;;;5083365;28;20496;-68
2022/04/23 06:56:22;;;;;;;16.38;13.38;;;;;;;;;;5082715;28;20048;-68
2022/04/23 06:58:48;;;;;;;15.13;13.52;;;;;;;;;;5084027;28;20067;-69
2022/04/23 07:01:15;;;;;;;15.90;13.68;;;;;;;;;;5085127;28;20056;-69
2022/04/23 07:03:41;;;;;;;16.45;13.45;;;;;;;;;;5090885;28;20044;-68
2022/04/23 07:06:08;;;;;;;17.15;13.63;;;;;;;;;;5092219;28;20095;-68
2022/04/23 07:08:34;;;;;;;18.08;13.75;;;;;;;;;;5091579;28;20058;-68
2022/04/23 07:11:00;;;;;;;16.02;14.32;;;;;;;;;;5095354;27;20055;-68
2022/04/23 07:13:27;;;;;;;16.10;13.95;;;;;;;;;;5092327;28;20048;-68
2022/04/23 07:15:53;;;;;;;16.50;13.63;;;;;;;;;;5092330;28;20526;-69
2022/04/23 07:18:19;;;;;;;19.20;13.73;;;;;;;;;;5095200;28;20052;-68
2022/04/23 07:20:45;;;;;;;16.15;14.45;;;;;;;;;;5096621;28;20048;-68
2022/04/23 07:25:56;;;;;;;15.27;13.63;;;;;;;;;;5090772;28;20451;-69
2022/04/23 07:28:24;;;;;;;16.45;13.35;;;;;;;;;;5085507;28;20052;-68
2022/04/23 07:30:51;;;;;;;15.10;13.05;;;;;;;;;;5086764;28;20056;-69
2022/04/23 07:38:47;;;;;;;15.27;12.48;;;;;;;;;;5090172;28;20056;-69
2022/04/23 07:41:15;;;;;;;14.80;12.95;;;;;;;;;;5090906;28;20499;-69
2022/04/23 07:43:48;;;;;;;20.65;12.25;;;;;;;;;;5081451;28;20508;-69
2022/04/23 07:46:14;;;;;;;15.07;13.48;;;;;;;;;;5092980;28;20049;-70
2022/04/23 07:48:40;;;;;;;15.10;12.98;;;;;;;;;;5098067;28;20052;-70
2022/04/23 07:51:08;;;;;;;16.35;12.93;;;;;;;;;;5104289;28;20058;-69
2022/04/23 07:53:34;;;;;;;16.17;12.80;;;;;;;;;;5094192;28;20056;-69
2022/04/23 07:56:01;;;;;;;15.25;12.95;;;;;;;;;;5095807;28;20114;-69
2022/04/23 07:58:27;;;;;;;15.32;12.48;;;;;;;;;;5093921;28;20488;-69
2022/04/23 08:00:54;;;;;;;15.32;13.15;;;;;;;;;;5093965;28;20088;-69
2022/04/23 08:03:20;;;;;;;15.25;13.32;;;;;;;;;;5094983;28;20049;-69
2022/04/23 08:05:47;;;;;;;14.90;13.30;;;;;;;;;;5086421;28;20061;-69
2022/04/23 08:08:15;;;;;;;15.48;13.43;;;;;;;;;;5094875;28;20529;-69
2022/04/23 08:10:48;;;;;;;17.35;13.30;;;;;;;;;;5094109;28;20048;-69
2022/04/23 08:13:14;;;;;;;15.82;13.35;;;;;;;;;;5095659;28;20496;-68
2022/04/23 08:15:40;;;;;;;15.77;13.65;;;;;;;;;;5093500;28;20052;-68
2022/04/23 08:18:07;;;;;;;15.15;12.98;;;;;;;;;;5094258;28;20056;-68
2022/04/23 08:20:33;;;;;;;15.98;12.25;;;;;;;;;;5093689;28;20693;-69
2022/04/23 08:22:59;;;;;;;15.98;13.90;;;;;;;;;;5093950;28;20049;-69
2022/04/23 08:25:25;;;;;;;14.75;13.15;;;;;;;;;;5093785;28;20056;-69
2022/04/23 08:27:53;;;;;;;20.55;12.48;;;;;;;;;;5094601;28;20506;-69
2022/04/23 08:30:36;;;;;;;15.25;13.63;;;;;;;;;;5092162;28;20445;-70
2022/04/23 08:33:03;;;;;;;14.88;13.10;;;;;;;;;;5074449;28;20500;-70
2022/04/23 08:35:29;;;;;;;14.77;12.25;;;;;;;;;;5081627;28;20052;-69
2022/04/23 08:37:57;;;;;;;14.55;12.63;;;;;;;;;;5090592;28;20056;-67
2022/04/23 08:40:23;;;;;;;16.58;13.63;;;;;;;;;;5094655;28;20078;-69
2022/04/23 08:42:50;;;;;;;17.52;13.20;;;;;;;;;;5101125;28;20049;-69
2022/04/23 08:45:17;;;;;;;15.48;13.52;;;;;;;;;;5096875;28;20514;-69
2022/04/23 08:47:44;;;;;;;16.55;14.40;;;;;;;;;;5094082;28;20044;-69
2022/04/23 08:50:11;;;;;;;17.92;14.52;;;;;;;;;;5092636;28;20392;-68
2022/04/23 08:52:40;;;;;;;17.48;14.45;;;;;;;;;;5094465;28;20102;-69
2022/04/23 08:55:07;;;;;;;16.20;13.55;;;;;;;;;;5094358;28;20065;-69
2022/04/23 08:57:35;;;;;;;15.05;13.27;;;;;;;;;;5093624;28;20053;-69
2022/04/23 09:00:03;;;;;;;15.27;13.50;;;;;;;;;;5094773;28;20067;-68
2022/04/23 09:02:32;;;;;;;15.65;13.70;;;;;;;;;;5094921;28;20044;-69
2022/04/23 09:04:58;;;;;;;13.57;12.18;;;;;;;;;;5094045;28;20129;-68
2022/04/23 09:07:26;;;;;;;15.70;13.65;;;;;;;;;;5094687;28;20049;-69
2022/04/23 09:09:53;;;;;;;16.42;13.90;;;;;;;;;;5094031;28;20055;-68
2022/04/23 09:12:20;;;;;;;15.85;14.05;;;;;;;;;;5094644;28;20048;-68
2022/04/23 09:14:46;;;;;;;16.23;13.40;;;;;;;;;;5094478;28;20053;-69
2022/04/23 09:25:42;;;;;;;14.98;13.23;;;;;;;;;;5094604;28;20512;-69
2022/04/23 09:28:26;;;;;;;17.80;13.75;;;;;;;;;;5094273;28;20496;-69
2022/04/23 09:30:54;;;;;;;16.70;13.75;;;;;;;;;;5094066;28;20082;-69
2022/04/23 09:33:27;;;;;;;16.52;13.27;;;;;;;;;;5094010;28;20057;-69
2022/04/23 09:35:56;;;;;;;14.82;13.23;;;;;;;;;;5093721;28;20057;-68
2022/04/23 09:38:23;;;;;;;16.33;12.60;;;;;;;;;;5093984;28;20080;-68
2022/04/23 09:40:59;;;;;;;15.48;12.88;;;;;;;;;;5094234;28;20052;-69
2022/04/23 09:43:26;;;;;;;15.10;13.20;;;;;;;;;;5094466;28;20066;-67
2022/04/23 09:46:03;;;;;;;15.45;12.98;;;;;;;;;;5093407;28;20572;-67
2022/04/23 09:48:39;;;;;;;14.80;12.98;;;;;;;;;;5091210;28;20076;-68
2022/04/23 09:51:19;;;;;;;17.77;12.95;;;;;;;;;;5091243;28;20060;-67
2022/04/23 09:53:46;;;;;;;19.77;13.80;;;;;;;;;;5093666;28;20147;-66
2022/04/23 09:56:13;;;;;;;17.80;13.65;;;;;;;;;;5093949;28;20057;-67
2022/04/23 09:58:40;;;;;;;16.73;10.77;;;;;;;;;;5093136;28;20052;-67
2022/04/23 10:01:08;;;;;;;17.67;12.98;;;;;;;;;;5093807;28;20488;-67
2022/04/23 10:03:35;;;;;;;15.50;12.50;;;;;;;;;;5093125;28;20057;-67
2022/04/23 10:06:02;;;;;;;15.80;13.10;;;;;;;;;;5092637;28;20060;-67
2022/04/23 10:08:30;;;;;;;15.05;13.18;;;;;;;;;;5093273;28;20075;-68
2022/04/23 10:11:03;;;;;;;15.55;12.68;;;;;;;;;;5092404;28;20048;-67
2022/04/23 10:13:30;;;;;;;16.55;13.30;;;;;;;;;;5088597;28;20056;-67
2022/04/23 10:15:57;;;;;;;16.15;13.60;;;;;;;;;;5093198;28;20052;-67
2022/04/23 10:18:24;;;;;;;19.67;13.13;;;;;;;;;;5092805;28;20053;-67
2022/04/23 10:21:00;;;;;;;16.40;12.82;;;;;;;;;;5086499;28;20140;-67
2022/04/23 10:23:46;;;;;;;15.00;13.07;;;;;;;;;;5086574;28;20075;-67
2022/04/23 10:26:13;;;;;;;;;;;;;;;;;;5092669;28;20056;-67
2022/04/23 10:28:44;;;;;;;15.35;12.10;;;;;;;;;;5093671;28;46020;-68
2022/04/23 10:31:16;;;;;;;16.00;14.02;;;;;;;;;;5093151;28;20140;-67
2022/04/23 10:33:46;;;;;;;22.58;14.60;;;;;;;;;;5091480;28;20064;-66
2022/04/23 10:36:13;;;;;;;15.15;13.38;;;;;;;;;;5087986;28;20055;-68
2022/04/23 10:38:42;;;;;;;19.30;13.85;;;;;;;;;;5091634;28;20506;-68
2022/04/23 10:41:10;;;;;;;18.58;15.32;;;;;;;;;;5094782;28;20110;-67
2022/04/23 10:43:46;;;;;;;17.63;14.07;;;;;;;;;;5091603;28;20064;-68
2022/04/23 10:46:31;;;;;;;19.63;12.98;;;;;;;;;;5085419;28;20099;-67
2022/04/23 10:49:13;;;;;;;15.93;13.90;;;;;;;;;;5092343;28;20114;-68
2022/04/23 10:51:43;;;;;;;19.35;13.68;;;;;;;;;;5091249;28;20110;-67
2022/04/23 10:54:09;;;;;;;16.65;13.05;;;;;;;;;;5079374;28;20053;-67
2022/04/23 10:56:36;;;;;;;16.02;13.55;;;;;;;;;;5089806;28;20057;-68
2022/04/23 10:59:03;;;;;;;17.65;14.15;;;;;;;;;;5093099;28;20048;-68
2022/04/23 11:01:30;;;;;;;20.35;15.32;;;;;;;;;;5085271;28;20185;-67
2022/04/23 11:04:08;;;;;;;19.30;14.55;;;;;;;;;;5106449;28;20051;-68
2022/04/23 11:12:32;;;;;;;18.65;13.55;;;;;;;;;;5102304;27;20098;-68
2022/04/23 11:15:00;;;;;;;15.25;13.55;;;;;;;;;;5093592;28;20052;-69
2022/04/23 11:17:36;;;;;;;16.00;14.10;;;;;;;;;;5090820;28;20058;-68
2022/04/23 11:20:03;;;;;;;17.52;14.27;;;;;;;;;;5092315;28;20139;-68
2022/04/23 11:22:29;;;;;;;15.57;13.88;;;;;;;;;;5092592;28;20930;-68
2022/04/23 11:24:57;;;;;;;19.00;14.32;;;;;;;;;;5084891;28;20059;-67
2022/04/23 11:27:29;;;;;;;15.93;13.88;;;;;;;;;;5075353;28;20053;-68
2022/04/23 11:29:56;;;;;;;16.70;14.98;;;;;;;;;;5091787;28;20052;-68
2022/04/23 11:32:28;;;;;;;18.00;15.20;;;;;;;;;;5091216;28;20056;-68
2022/04/23 11:35:04;;;;;;;16.75;14.88;;;;;;;;;;5092229;28;20044;-66
2022/04/23 11:37:39;;;;;;;19.45;14.05;;;;;;;;;;5089935;28;20053;-69
2022/04/23 11:40:05;;;;;;;17.10;14.97;;;;;;;;;;5092397;28;20587;-70
2022/04/23 11:42:35;;;;;;;26.63;15.73;;;;;;;;;;5092161;28;20063;-70
2022/04/23 11:45:02;;;;;;;17.73;14.45;;;;;;;;;;5091694;28;20056;-70
2022/04/23 11:47:29;;;;;;;16.17;14.50;;;;;;;;;;5091242;28;20045;-69
2022/04/23 11:50:12;;;;;;;17.23;15.45;;;;;;;;;;5092058;28;20508;-69
2022/04/23 11:52:39;;;;;;;25.27;15.88;;;;;;;;;;5094623;28;20487;-71
2022/04/23 11:55:05;;;;;;;24.48;16.08;;;;;;;;;;5092058;28;20504;-71
2022/04/23 11:57:33;;;;;;;18.80;14.95;;;;;;;;;;5092237;28;20430;-71
2022/04/23 12:00:00;;;;;;;16.92;14.10;;;;;;;;;;5091697;28;20049;-71
2022/04/23 12:02:27;;;;;;;17.83;14.38;;;;;;;;;;5091933;28;20053;-72
2022/04/23 12:04:58;;;;;;;18.15;15.98;;;;;;;;;;5092033;28;20048;-71
2022/04/23 12:07:25;;;;;;;21.85;15.05;;;;;;;;;;5092133;28;20052;-70
2022/04/23 12:09:55;;;;;;;21.27;14.93;;;;;;;;;;5091949;28;20053;-70
2022/04/23 12:12:25;;;;;;;15.65;13.95;;;;;;;;;;5091797;28;20060;-71
2022/04/23 12:14:59;;;;;;;17.90;14.25;;;;;;;;;;5089239;28;20049;-71
2022/04/23 12:17:29;;;;;;;18.58;16.30;;;;;;;;;;5092452;28;20064;-70
2022/04/23 12:19:57;;;;;;;17.08;14.68;;;;;;;;;;5091481;28;20045;-70
2022/04/23 12:22:28;;;;;;;16.80;15.02;;;;;;;;;;5094851;28;20553;-70
2022/04/23 12:25:07;;;;;;;20.65;15.55;;;;;;;;;;5092306;28;20052;-70
2022/04/23 12:27:52;;;;;;;18.40;15.65;;;;;;;;;;5094052;28;20053;-71
2022/04/23 12:42:00;;;;;;;17.90;13.77;;;;;;;;;;5096635;28;20502;-72
2022/04/23 12:44:42;;;;;;;16.90;14.05;;;;;;;;;;5095343;28;20056;-71
2022/04/23 12:47:17;;;;;;;14.40;12.95;;;;;;;;;;5094566;28;20141;-70
2022/04/23 12:49:50;;;;;;;16.30;13.30;;;;;;;;;;5093714;28;20059;-71
2022/04/23 12:52:19;;;;;;;17.48;13.68;;;;;;;;;;5096708;28;20060;-70
2022/04/23 12:55:04;;;;;;;15.50;13.90;;;;;;;;;;5085526;28;20055;-70
2022/04/23 12:57:33;;;;;;;15.32;13.32;;;;;;;;;;5094881;28;20049;-71
2022/04/23 12:59:59;;;;;;;15.45;13.60;;;;;;;;;;5094996;28;20045;-71
2022/04/23 13:02:32;;;;;;;16.10;13.48;;;;;;;;;;5094106;28;20067;-71
2022/04/23 13:04:59;;;;;;;13.43;12.07;;;;;;;;;;5091279;28;20079;-71
2022/04/23 13:10:10;;;;;;;16.10;12.55;;;;;;;;;;5102510;28;20052;-70
2022/04/23 13:12:37;;;;;;;14.35;11.52;;;;;;;;;;5101900;27;20054;-70
2022/04/23 13:15:04;;;;;;;12.75;11.15;;;;;;;;;;5094328;28;20052;-69
2022/04/23 13:17:31;;;;;;;14.13;11.75;;;;;;;;;;5094091;28;20045;-70
2022/04/23 13:19:57;;;;;;;13.48;11.68;;;;;;;;;;5090427;28;20056;-70
2022/04/23 13:22:23;;;;;;;15.45;12.52;;;;;;;;;;5093641;28;20065;-70
2022/04/23 13:24:50;;;;;;;15.15;12.38;;;;;;;;;;5093158;28;20074;-71
2022/04/23 13:27:16;;;;;;;13.77;12.30;;;;;;;;;;5093288;28;20428;-70
2022/04/23 13:29:42;;;;;;;13.38;11.98;;;;;;;;;;5094038;28;20521;-70
2022/04/23 13:32:09;;;;;;;14.68;12.10;;;;;;;;;;5092711;28;20067;-71
2022/04/23 13:34:35;;;;;;;17.65;12.57;;;;;;;;;;5093826;28;20130;-69
2022/04/23 13:37:02;;;;;;;13.55;11.45;;;;;;;;;;5096683;28;20057;-69
2022/04/23 13:39:28;;;;;;;27.02;12.10;;;;;;;;;;5092945;28;20055;-70
2022/04/23 13:41:55;;;;;;;14.80;12.82;;;;;;;;;;5105509;28;20083;-71
2022/04/23 13:44:22;;;;;;;16.60;11.90;;;;;;;;;;5092503;28;20052;-70
2022/04/23 13:46:51;;;;;;;13.48;11.20;;;;;;;;;;5098024;28;20074;-69
2022/04/23 13:49:17;;;;;;;14.60;11.13;;;;;;;;;;5094502;28;20052;-70
2022/04/23 13:51:43;;;;;;;12.95;10.45;;;;;;;;;;5088757;28;20064;-70
2022/04/23 13:54:10;;;;;;;12.68;10.15;;;;;;;;;;5093910;28;20092;-69
2022/04/23 13:56:36;;;;;;;12.35;10.18;;;;;;;;;;5092957;28;20476;-69
2022/04/23 13:59:03;;;;;;;11.40;10.07;;;;;;;;;;5092550;28;20475;-70
2022/04/23 14:01:32;;;;;;;14.75;11.30;;;;;;;;;;5086271;28;20147;-69
2022/04/23 14:12:15;;;;;;;10.00;8.90;;;;;;;;;;5094491;28;20174;-70
2022/04/23 14:14:42;;;;;;;13.10;9.55;;;;;;;;;;5091353;28;20283;-70
2022/04/23 14:17:08;;;;;;;13.48;8.55;;;;;;;;;;5089018;28;20057;-71
2022/04/23 14:19:35;;;;;;;9.40;8.40;;;;;;;;;;5089148;28;20106;-70
2022/04/23 14:22:03;;;;;;;11.50;9.15;;;;;;;;;;5090266;28;20060;-70
2022/04/23 14:24:31;;;;;;;11.40;8.68;;;;;;;;;;5092834;28;20048;-70
2022/04/23 14:26:57;;;;;;;12.32;9.65;;;;;;;;;;5091511;28;20063;-71
2022/04/23 14:29:24;;;;;;;13.82;8.93;;;;;;;;;;5092509;28;20048;-71
2022/04/23 14:31:50;;;;;;;12.57;9.75;;;;;;;;;;5092210;28;20055;-70
2022/04/23 14:34:16;;;;;;;9.93;8.90;;;;;;;;;;5091552;28;20059;-70
2022/04/23 14:36:43;;;;;;;10.02;9.00;;;;;;;;;;5092486;28;20045;-71
2022/04/23 14:39:09;;;;;;;10.57;8.07;;;;;;;;;;5093115;28;20052;-70
2022/04/23 14:41:35;;;;;;;11.43;8.85;;;;;;;;;;5091368;28;20408;-70
2022/04/23 14:44:02;;;;;;;9.82;8.57;;;;;;;;;;5092609;28;20048;-71
2022/04/23 14:46:28;;;;;;;9.70;8.70;;;;;;;;;;5091588;28;20059;-70
2022/04/23 14:48:55;;;;;;;9.90;8.68;;;;;;;;;;5091280;28;20049;-70
2022/04/23 14:54:06;;;;;;;9.32;8.35;;;;;;;;;;5093319;28;20463;-70
2022/04/23 14:56:33;;;;;;;11.38;8.50;;;;;;;;;;5087756;28;20072;-70
2022/04/23 14:59:01;;;;;;;9.70;8.70;;;;;;;;;;5091258;28;20063;-70
2022/04/23 15:01:27;;;;;;;10.48;9.20;;;;;;;;;;5092114;28;20066;-71
2022/04/23 15:03:53;;;;;;;11.65;8.38;;;;;;;;;;5089709;28;20076;-71
2022/04/23 15:06:21;;;;;;;9.98;8.32;;;;;;;;;;5091926;28;20103;-71
2022/04/23 15:08:47;;;;;;;11.00;8.70;;;;;;;;;;5092550;28;20056;-71
2022/04/23 15:11:14;;;;;;;10.75;8.57;;;;;;;;;;5092656;28;20053;-72
2022/04/23 15:13:40;;;;;;;9.57;8.57;;;;;;;;;;5092726;28;20432;-72
2022/04/23 15:16:06;;;;;;;10.73;8.15;;;;;;;;;;5090783;28;20538;-72